sensor_id;sensor_type;location;lat;lon;timestamp;pressure;altitude;pressure_sealevel;temperature
19102;BMP280;9683;49.028;12.064;2023-09-30T00:02:07;97895.16;;;20.10
19102;BMP280;9683;49.028;12.064;2023-09-30T00:04:33;97904.88;;;20.06
19102;BMP280;9683;49.028;12.064;2023-09-30T00:06:59;97896.22;;;19.99
19102;BMP280;9683;49.028;12.064;2023-09-30T00:09:26;97900.00;;;19.93
19102;BMP280;9683;49.028;12.064;2023-09-30T00:11:52;97897.25;;;19.88
19102;BMP280;9683;49.028;12.064;2023-09-30T00:14:21;97895.91;;;19.85
19102;BMP280;9683;49.028;12.064;2023-09-30T00:16:48;97904.25;;;19.79
19102;BMP280;9683;49.028;12.064;2023-09-30T00:19:15;97909.94;;;19.77
19102;BMP280;9683;49.028;12.064;2023-09-30T00:21:42;97919.94;;;19.77
19102;BMP280;9683;49.028;12.064;2023-09-30T00:24:08;97905.06;;;19.74
19102;BMP280;9683;49.028;12.064;2023-09-30T00:26:35;97911.00;;;19.71
19102;BMP280;9683;49.028;12.064;2023-09-30T00:29:02;97914.22;;;19.63
19102;BMP280;9683;49.028;12.064;2023-09-30T00:31:31;97915.28;;;19.62
19102;BMP280;9683;49.028;12.064;2023-09-30T00:33:58;97921.50;;;19.62
19102;BMP280;9683;49.028;12.064;2023-09-30T00:36:24;97925.00;;;19.63
19102;BMP280;9683;49.028;12.064;2023-09-30T00:38:51;97925.81;;;19.63
19102;BMP280;9683;49.028;12.064;2023-09-30T00:41:17;97929.34;;;19.64
19102;BMP280;9683;49.028;12.064;2023-09-30T00:43:45;97928.28;;;19.65
19102;BMP280;9683;49.028;12.064;2023-09-30T00:46:23;97929.88;;;19.66
19102;BMP280;9683;49.028;12.064;2023-09-30T00:48:53;97935.56;;;19.64
19102;BMP280;9683;49.028;12.064;2023-09-30T00:51:21;97922.25;;;19.53
19102;BMP280;9683;49.028;12.064;2023-09-30T00:53:48;97934.47;;;19.60
19102;BMP280;9683;49.028;12.064;2023-09-30T00:56:15;97930.94;;;19.60
19102;BMP280;9683;49.028;12.064;2023-09-30T00:58:44;97928.50;;;19.58
19102;BMP280;9683;49.028;12.064;2023-09-30T01:01:11;97928.22;;;19.55
19102;BMP280;9683;49.028;12.064;2023-09-30T01:03:38;97921.72;;;19.51
19102;BMP280;9683;49.028;12.064;2023-09-30T01:06:06;97926.63;;;19.59
19102;BMP280;9683;49.028;12.064;2023-09-30T01:08:33;97935.22;;;19.51
19102;BMP280;9683;49.028;12.064;2023-09-30T01:11:00;97939.00;;;19.50
19102;BMP280;9683;49.028;12.064;2023-09-30T01:13:31;97933.88;;;19.48
19102;BMP280;9683;49.028;12.064;2023-09-30T01:15:58;97934.88;;;19.42
19102;BMP280;9683;49.028;12.064;2023-09-30T01:18:24;97944.13;;;19.46
19102;BMP280;9683;49.028;12.064;2023-09-30T01:20:52;97939.28;;;19.48
19102;BMP280;9683;49.028;12.064;2023-09-30T01:23:21;97928.97;;;19.45
19102;BMP280;9683;49.028;12.064;2023-09-30T01:25:47;97934.06;;;19.42
19102;BMP280;9683;49.028;12.064;2023-09-30T01:28:14;97934.59;;;19.39
19102;BMP280;9683;49.028;12.064;2023-09-30T01:30:41;97930.31;;;19.43
19102;BMP280;9683;49.028;12.064;2023-09-30T01:33:08;97935.47;;;19.44
19102;BMP280;9683;49.028;12.064;2023-09-30T01:35:35;97933.56;;;19.45
19102;BMP280;9683;49.028;12.064;2023-09-30T01:38:01;97924.91;;;19.43
19102;BMP280;9683;49.028;12.064;2023-09-30T01:40:29;97926.03;;;19.47
19102;BMP280;9683;49.028;12.064;2023-09-30T01:42:56;97926.56;;;19.44
19102;BMP280;9683;49.028;12.064;2023-09-30T01:45:22;97931.34;;;19.42
19102;BMP280;9683;49.028;12.064;2023-09-30T01:47:49;97935.13;;;19.41
19102;BMP280;9683;49.028;12.064;2023-09-30T01:50:15;97929.19;;;19.39
19102;BMP280;9683;49.028;12.064;2023-09-30T01:52:42;97898.00;;;19.16
19102;BMP280;9683;49.028;12.064;2023-09-30T01:55:09;97928.63;;;19.32
19102;BMP280;9683;49.028;12.064;2023-09-30T01:57:37;97927.81;;;19.31
19102;BMP280;9683;49.028;12.064;2023-09-30T02:00:05;97928.63;;;19.32
19102;BMP280;9683;49.028;12.064;2023-09-30T02:02:35;97940.50;;;19.31
19102;BMP280;9683;49.028;12.064;2023-09-30T02:05:01;97942.91;;;19.27
19102;BMP280;9683;49.028;12.064;2023-09-30T02:07:29;97942.91;;;19.27
19102;BMP280;9683;49.028;12.064;2023-09-30T02:09:55;97947.19;;;19.23
19102;BMP280;9683;49.028;12.064;2023-09-30T02:12:22;97942.88;;;19.22
19102;BMP280;9683;49.028;12.064;2023-09-30T02:14:50;97932.31;;;19.20
19102;BMP280;9683;49.028;12.064;2023-09-30T02:17:16;97938.28;;;19.22
19102;BMP280;9683;49.028;12.064;2023-09-30T02:19:43;97936.94;;;19.25
19102;BMP280;9683;49.028;12.064;2023-09-30T02:22:09;97939.38;;;19.27
19102;BMP280;9683;49.028;12.064;2023-09-30T02:24:36;97942.63;;;19.29
19102;BMP280;9683;49.028;12.064;2023-09-30T02:27:03;97942.63;;;19.29
19102;BMP280;9683;49.028;12.064;2023-09-30T02:29:29;97935.06;;;19.26
19102;BMP280;9683;49.028;12.064;2023-09-30T02:31:58;97939.38;;;19.27
19102;BMP280;9683;49.028;12.064;2023-09-30T02:34:24;97948.50;;;19.20
19102;BMP280;9683;49.028;12.064;2023-09-30T02:36:51;97949.28;;;19.16
19102;BMP280;9683;49.028;12.064;2023-09-30T02:39:18;97942.25;;;19.10
19102;BMP280;9683;49.028;12.064;2023-09-30T02:41:45;97951.13;;;19.05
19102;BMP280;9683;49.028;12.064;2023-09-30T02:44:12;97953.00;;;19.05
19102;BMP280;9683;49.028;12.064;2023-09-30T02:46:38;97957.84;;;19.03
19102;BMP280;9683;49.028;12.064;2023-09-30T02:49:06;97956.22;;;19.02
19102;BMP280;9683;49.028;12.064;2023-09-30T02:51:33;97955.91;;;18.98
19102;BMP280;9683;49.028;12.064;2023-09-30T02:53:59;97947.03;;;18.98
19102;BMP280;9683;49.028;12.064;2023-09-30T02:56:26;97951.03;;;18.95
19102;BMP280;9683;49.028;12.064;2023-09-30T02:58:55;97947.00;;;18.93
19102;BMP280;9683;49.028;12.064;2023-09-30T03:01:22;97946.13;;;18.87
19102;BMP280;9683;49.028;12.064;2023-09-30T03:03:49;97950.22;;;18.90
19102;BMP280;9683;49.028;12.064;2023-09-30T03:06:17;97952.91;;;18.90
19102;BMP280;9683;49.028;12.064;2023-09-30T03:08:43;97944.25;;;18.88
19102;BMP280;9683;49.028;12.064;2023-09-30T03:11:10;97946.94;;;18.88
19102;BMP280;9683;49.028;12.064;2023-09-30T03:13:37;97945.78;;;18.78
19102;BMP280;9683;49.028;12.064;2023-09-30T03:16:05;97934.66;;;18.70
19102;BMP280;9683;49.028;12.064;2023-09-30T03:18:32;97945.41;;;18.65
19102;BMP280;9683;49.028;12.064;2023-09-30T03:20:59;97941.09;;;18.64
19102;BMP280;9683;49.028;12.064;2023-09-30T03:23:28;97952.09;;;18.57
19102;BMP280;9683;49.028;12.064;2023-09-30T03:25:56;97957.66;;;18.51
19102;BMP280;9683;49.028;12.064;2023-09-30T03:28:23;97958.69;;;18.45
19102;BMP280;9683;49.028;12.064;2023-09-30T03:30:49;97954.34;;;18.44
19102;BMP280;9683;49.028;12.064;2023-09-30T03:33:16;97966.47;;;18.41
19102;BMP280;9683;49.028;12.064;2023-09-30T03:35:42;97961.88;;;18.42
19102;BMP280;9683;49.028;12.064;2023-09-30T03:38:09;97932.88;;;18.27
19102;BMP280;9683;49.028;12.064;2023-09-30T03:40:39;97969.84;;;18.53
19102;BMP280;9683;49.028;12.064;2023-09-30T03:43:12;97962.31;;;18.55
19102;BMP280;9683;49.028;12.064;2023-09-30T03:45:39;97969.66;;;18.60
19102;BMP280;9683;49.028;12.064;2023-09-30T03:48:06;97965.88;;;18.61
19102;BMP280;9683;49.028;12.064;2023-09-30T03:50:33;97969.13;;;18.63
19102;BMP280;9683;49.028;12.064;2023-09-30T03:53:01;97968.06;;;18.64
19102;BMP280;9683;49.028;12.064;2023-09-30T03:55:28;97963.97;;;18.61
19102;BMP280;9683;49.028;12.064;2023-09-30T03:57:56;97965.38;;;18.64
19102;BMP280;9683;49.028;12.064;2023-09-30T04:00:22;97966.69;;;18.61
19102;BMP280;9683;49.028;12.064;2023-09-30T04:02:50;97942.50;;;18.45
19102;BMP280;9683;49.028;12.064;2023-09-30T04:05:20;97969.66;;;18.65
19102;BMP280;9683;49.028;12.064;2023-09-30T04:07:51;97975.88;;;18.65
19102;BMP280;9683;49.028;12.064;2023-09-30T04:10:18;97967.78;;;18.65
19102;BMP280;9683;49.028;12.064;2023-09-30T04:12:44;97970.50;;;18.65
19102;BMP280;9683;49.028;12.064;2023-09-30T04:15:12;97979.22;;;18.72
19102;BMP280;9683;49.028;12.064;2023-09-30T04:17:39;97982.16;;;18.71
19102;BMP280;9683;49.028;12.064;2023-09-30T04:20:07;97978.88;;;18.69
19102;BMP280;9683;49.028;12.064;2023-09-30T04:22:36;97982.09;;;18.66
19102;BMP280;9683;49.028;12.064;2023-09-30T04:25:03;97983.16;;;18.65
19102;BMP280;9683;49.028;12.064;2023-09-30T04:27:31;97982.38;;;18.64
19102;BMP280;9683;49.028;12.064;2023-09-30T04:29:58;97988.53;;;18.60
19102;BMP280;9683;49.028;12.064;2023-09-30T04:32:26;97994.72;;;18.60
19102;BMP280;9683;49.028;12.064;2023-09-30T04:34:52;98001.97;;;18.55
19102;BMP280;9683;49.028;12.064;2023-09-30T04:37:19;97993.78;;;18.50
19102;BMP280;9683;49.028;12.064;2023-09-30T04:39:45;97998.94;;;18.51
19102;BMP280;9683;49.028;12.064;2023-09-30T04:42:12;98005.91;;;18.47
19102;BMP280;9683;49.028;12.064;2023-09-30T04:44:38;97999.13;;;18.45
19102;BMP280;9683;49.028;12.064;2023-09-30T04:47:06;97997.19;;;18.40
19102;BMP280;9683;49.028;12.064;2023-09-30T04:49:34;98003.66;;;18.39
19102;BMP280;9683;49.028;12.064;2023-09-30T04:52:01;98003.59;;;18.34
19102;BMP280;9683;49.028;12.064;2023-09-30T04:54:27;98006.28;;;18.34
19102;BMP280;9683;49.028;12.064;2023-09-30T04:56:54;98006.84;;;18.36
19102;BMP280;9683;49.028;12.064;2023-09-30T04:59:21;98007.34;;;18.33
19102;BMP280;9683;49.028;12.064;2023-09-30T05:01:50;98012.75;;;18.33
19102;BMP280;9683;49.028;12.064;2023-09-30T05:04:16;98015.13;;;18.29
19102;BMP280;9683;49.028;12.064;2023-09-30T05:06:44;98016.78;;;18.30
19102;BMP280;9683;49.028;12.064;2023-09-30T05:09:11;98023.75;;;18.26
19102;BMP280;9683;49.028;12.064;2023-09-30T05:11:37;98019.41;;;18.25
19102;BMP280;9683;49.028;12.064;2023-09-30T05:14:04;98024.22;;;18.23
19102;BMP280;9683;49.028;12.064;2023-09-30T05:16:31;98019.59;;;18.19
19102;BMP280;9683;49.028;12.064;2023-09-30T05:18:57;98026.00;;;18.13
19102;BMP280;9683;49.028;12.064;2023-09-30T05:21:24;98018.66;;;18.08
19102;BMP280;9683;49.028;12.064;2023-09-30T05:23:53;98021.59;;;18.07
19102;BMP280;9683;49.028;12.064;2023-09-30T05:26:19;98021.53;;;18.02
19102;BMP280;9683;49.028;12.064;2023-09-30T05:28:46;98025.88;;;18.03
19102;BMP280;9683;49.028;12.064;2023-09-30T05:31:12;98020.47;;;18.03
19102;BMP280;9683;49.028;12.064;2023-09-30T05:33:39;98018.53;;;17.98
19102;BMP280;9683;49.028;12.064;2023-09-30T05:36:05;98014.19;;;17.97
19102;BMP280;9683;49.028;12.064;2023-09-30T05:38:32;98014.47;;;17.96
19102;BMP280;9683;49.028;12.064;2023-09-30T05:41:00;98019.59;;;17.97
19102;BMP280;9683;49.028;12.064;2023-09-30T05:43:27;98026.63;;;17.98
19102;BMP280;9683;49.028;12.064;2023-09-30T05:45:54;98033.94;;;18.03
19102;BMP280;9683;49.028;12.064;2023-09-30T05:48:22;98027.00;;;18.07
19102;BMP280;9683;49.028;12.064;2023-09-30T05:50:48;98028.00;;;18.01
19102;BMP280;9683;49.028;12.064;2023-09-30T05:53:15;98021.50;;;17.97
19102;BMP280;9683;49.028;12.064;2023-09-30T05:55:42;98008.41;;;17.83
19102;BMP280;9683;49.028;12.064;2023-09-30T05:58:13;98028.06;;;17.84
19102;BMP280;9683;49.028;12.064;2023-09-30T06:00:39;98027.19;;;17.78
19102;BMP280;9683;49.028;12.064;2023-09-30T06:03:07;98028.50;;;17.76
19102;BMP280;9683;49.028;12.064;2023-09-30T06:05:34;98031.50;;;17.79
19102;BMP280;9683;49.028;12.064;2023-09-30T06:08:05;98036.38;;;17.82
19102;BMP280;9683;49.028;12.064;2023-09-30T06:10:34;98047.47;;;17.86
19102;BMP280;9683;49.028;12.064;2023-09-30T06:13:04;98043.97;;;17.85
19102;BMP280;9683;49.028;12.064;2023-09-30T06:15:32;98056.59;;;17.85
19102;BMP280;9683;49.028;12.064;2023-09-30T06:17:58;98067.97;;;17.87
19102;BMP280;9683;49.028;12.064;2023-09-30T06:20:26;98074.72;;;17.90
19102;BMP280;9683;49.028;12.064;2023-09-30T06:22:53;98063.72;;;17.91
19102;BMP280;9683;49.028;12.064;2023-09-30T06:25:20;98043.09;;;17.80
19102;BMP280;9683;49.028;12.064;2023-09-30T06:27:48;98068.59;;;17.94
19102;BMP280;9683;49.028;12.064;2023-09-30T06:30:15;98069.72;;;17.98
19102;BMP280;9683;49.028;12.064;2023-09-30T06:32:43;98063.59;;;18.03
19102;BMP280;9683;49.028;12.064;2023-09-30T06:35:10;98057.97;;;18.04
19102;BMP280;9683;49.028;12.064;2023-09-30T06:37:37;98062.84;;;18.07
19102;BMP280;9683;49.028;12.064;2023-09-30T06:40:05;98052.94;;;18.13
19102;BMP280;9683;49.028;12.064;2023-09-30T06:42:33;98029.38;;;18.03
19102;BMP280;9683;49.028;12.064;2023-09-30T06:45:00;98050.56;;;18.16
19102;BMP280;9683;49.028;12.064;2023-09-30T06:47:26;98047.06;;;18.16
19102;BMP280;9683;49.028;12.064;2023-09-30T06:49:54;98059.84;;;18.25
19102;BMP280;9683;49.028;12.064;2023-09-30T06:52:21;98063.00;;;18.22
19102;BMP280;9683;49.028;12.064;2023-09-30T06:54:47;98063.59;;;18.24
19102;BMP280;9683;49.028;12.064;2023-09-30T06:57:14;98074.97;;;18.26
19102;BMP280;9683;49.028;12.064;2023-09-30T06:59:40;98070.69;;;18.30
19102;BMP280;9683;49.028;12.064;2023-09-30T07:02:07;98071.22;;;18.32
19102;BMP280;9683;49.028;12.064;2023-09-30T07:04:33;98080.69;;;18.35
19102;BMP280;9683;49.028;12.064;2023-09-30T07:07:01;98085.59;;;18.38
19102;BMP280;9683;49.028;12.064;2023-09-30T07:09:28;98094.75;;;18.37
19102;BMP280;9683;49.028;12.064;2023-09-30T07:11:55;98091.81;;;18.39
19102;BMP280;9683;49.028;12.064;2023-09-30T07:14:21;98091.53;;;18.40
19102;BMP280;9683;49.028;12.064;2023-09-30T07:16:48;98099.16;;;18.43
19102;BMP280;9683;49.028;12.064;2023-09-30T07:19:14;98103.22;;;18.46
19102;BMP280;9683;49.028;12.064;2023-09-30T07:21:41;98096.75;;;18.47
19102;BMP280;9683;49.028;12.064;2023-09-30T07:24:09;98110.31;;;18.52
19102;BMP280;9683;49.028;12.064;2023-09-30T07:26:36;98102.22;;;18.52
19102;BMP280;9683;49.028;12.064;2023-09-30T07:29:02;98110.31;;;18.52
19102;BMP280;9683;49.028;12.064;2023-09-30T07:31:33;98106.22;;;18.49
19102;BMP280;9683;49.028;12.064;2023-09-30T07:34:00;98110.06;;;18.53
19102;BMP280;9683;49.028;12.064;2023-09-30T07:36:26;98111.84;;;18.48
19102;BMP280;9683;49.028;12.064;2023-09-30T07:38:53;98135.25;;;18.42
19102;BMP280;9683;49.028;12.064;2023-09-30T07:41:21;98123.06;;;18.40
19102;BMP280;9683;49.028;12.064;2023-09-30T07:43:48;98141.09;;;18.34
19102;BMP280;9683;49.028;12.064;2023-09-30T07:46:14;98126.66;;;18.23
19102;BMP280;9683;49.028;12.064;2023-09-30T07:48:42;98125.81;;;18.23
19102;BMP280;9683;49.028;12.064;2023-09-30T07:51:08;98121.97;;;18.14
19102;BMP280;9683;49.028;12.064;2023-09-30T07:53:38;98136.19;;;18.09
19102;BMP280;9683;49.028;12.064;2023-09-30T07:56:05;98131.84;;;18.08
19102;BMP280;9683;49.028;12.064;2023-09-30T07:58:33;98134.09;;;18.16
19102;BMP280;9683;49.028;12.064;2023-09-30T08:00:59;98127.97;;;18.21
19102;BMP280;9683;49.028;12.064;2023-09-30T08:03:26;98138.81;;;18.26
19102;BMP280;9683;49.028;12.064;2023-09-30T08:05:53;98125.59;;;18.24
19102;BMP280;9683;49.028;12.064;2023-09-30T08:08:19;98134.59;;;18.35
19102;BMP280;9683;49.028;12.064;2023-09-30T08:10:46;98142.88;;;18.28
19102;BMP280;9683;49.028;12.064;2023-09-30T08:13:13;98152.53;;;18.24
19102;BMP280;9683;49.028;12.064;2023-09-30T08:15:41;98153.47;;;18.13
19102;BMP280;9683;49.028;12.064;2023-09-30T08:18:07;98150.13;;;18.06
19102;BMP280;9683;49.028;12.064;2023-09-30T08:20:34;98156.16;;;18.13
19102;BMP280;9683;49.028;12.064;2023-09-30T08:23:02;98159.50;;;18.20
19102;BMP280;9683;49.028;12.064;2023-09-30T08:25:28;98162.97;;;17.99
19102;BMP280;9683;49.028;12.064;2023-09-30T08:27:55;98158.16;;;18.01
19102;BMP280;9683;49.028;12.064;2023-09-30T08:30:21;98158.22;;;18.06
19102;BMP280;9683;49.028;12.064;2023-09-30T08:32:49;98162.38;;;18.14
19102;BMP280;9683;49.028;12.064;2023-09-30T08:35:16;98150.94;;;18.07
19102;BMP280;9683;49.028;12.064;2023-09-30T08:37:42;98156.09;;;18.08
19102;BMP280;9683;49.028;12.064;2023-09-30T08:40:09;98163.91;;;18.10
19102;BMP280;9683;49.028;12.064;2023-09-30T08:42:38;98169.06;;;18.11
19102;BMP280;9683;49.028;12.064;2023-09-30T08:45:05;98180.06;;;18.10
19102;BMP280;9683;49.028;12.064;2023-09-30T08:47:35;98179.31;;;17.93
19102;BMP280;9683;49.028;12.064;2023-09-30T08:50:06;98183.16;;;17.97
19102;BMP280;9683;49.028;12.064;2023-09-30T08:52:36;98195.94;;;18.06
19102;BMP280;9683;49.028;12.064;2023-09-30T08:55:04;98195.94;;;18.06
19102;BMP280;9683;49.028;12.064;2023-09-30T08:57:33;98191.97;;;17.92
19102;BMP280;9683;49.028;12.064;2023-09-30T09:00:03;98187.13;;;17.94
19102;BMP280;9683;49.028;12.064;2023-09-30T09:02:30;98188.44;;;17.92
19102;BMP280;9683;49.028;12.064;2023-09-30T09:04:58;98190.25;;;17.86
19102;BMP280;9683;49.028;12.064;2023-09-30T09:07:30;98198.41;;;17.74
19102;BMP280;9683;49.028;12.064;2023-09-30T09:10:05;98197.00;;;17.72
19102;BMP280;9683;49.028;12.064;2023-09-30T09:12:33;98187.41;;;17.76
19102;BMP280;9683;49.028;12.064;2023-09-30T09:15:01;98188.59;;;17.85
19102;BMP280;9683;49.028;12.064;2023-09-30T09:17:40;98176.03;;;17.91
19102;BMP280;9683;49.028;12.064;2023-09-30T09:20:09;98180.44;;;18.13
19102;BMP280;9683;49.028;12.064;2023-09-30T09:22:41;98166.53;;;18.21
19102;BMP280;9683;49.028;12.064;2023-09-30T09:25:08;98169.72;;;18.40
19102;BMP280;9683;49.028;12.064;2023-09-30T09:27:35;98168.56;;;18.53
19102;BMP280;9683;49.028;12.064;2023-09-30T09:30:14;98170.34;;;18.64
19102;BMP280;9683;49.028;12.064;2023-09-30T09:32:52;98169.84;;;18.67
19102;BMP280;9683;49.028;12.064;2023-09-30T09:35:20;98170.94;;;18.49
19102;BMP280;9683;49.028;12.064;2023-09-30T09:37:55;98173.28;;;18.62
19102;BMP280;9683;49.028;12.064;2023-09-30T09:40:23;98179.00;;;18.66
19102;BMP280;9683;49.028;12.064;2023-09-30T09:42:50;98174.72;;;18.70
19102;BMP280;9683;49.028;12.064;2023-09-30T09:45:20;98163.88;;;18.65
19102;BMP280;9683;49.028;12.064;2023-09-30T09:47:48;98158.22;;;18.66
19102;BMP280;9683;49.028;12.064;2023-09-30T09:50:16;98152.84;;;18.66
19102;BMP280;9683;49.028;12.064;2023-09-30T09:52:44;98164.56;;;18.77
19102;BMP280;9683;49.028;12.064;2023-09-30T09:55:15;98152.16;;;18.76
19102;BMP280;9683;49.028;12.064;2023-09-30T09:57:43;98161.25;;;18.70
19102;BMP280;9683;49.028;12.064;2023-09-30T10:00:11;98165.13;;;18.79
19102;BMP280;9683;49.028;12.064;2023-09-30T10:02:39;98160.84;;;18.83
19102;BMP280;9683;49.028;12.064;2023-09-30T10:05:06;98163.91;;;18.92
19102;BMP280;9683;49.028;12.064;2023-09-30T10:07:37;98158.66;;;19.02
19102;BMP280;9683;49.028;12.064;2023-09-30T10:10:07;98156.31;;;19.10
19102;BMP280;9683;49.028;12.064;2023-09-30T10:12:39;98164.19;;;19.17
19102;BMP280;9683;49.028;12.064;2023-09-30T10:15:37;98165.06;;;19.22
19102;BMP280;9683;49.028;12.064;2023-09-30T10:18:06;98137.59;;;19.04
19102;BMP280;9683;49.028;12.064;2023-09-30T10:20:34;98162.06;;;19.19
19102;BMP280;9683;49.028;12.064;2023-09-30T10:26:13;98168.31;;;19.24
19102;BMP280;9683;49.028;12.064;2023-09-30T10:28:44;98172.13;;;19.29
19102;BMP280;9683;49.028;12.064;2023-09-30T10:31:13;98166.13;;;19.21
19102;BMP280;9683;49.028;12.064;2023-09-30T10:34:17;98165.25;;;19.16
19102;BMP280;9683;49.028;12.064;2023-09-30T10:36:44;98162.06;;;19.19
19102;BMP280;9683;49.028;12.064;2023-09-30T10:39:12;98163.38;;;19.16
19102;BMP280;9683;49.028;12.064;2023-09-30T10:41:49;98145.69;;;19.31
19102;BMP280;9683;49.028;12.064;2023-09-30T10:44:36;98152.06;;;19.46
19102;BMP280;9683;49.028;12.064;2023-09-30T10:47:34;98158.69;;;19.60
19102;BMP280;9683;49.028;12.064;2023-09-30T10:50:02;98163.84;;;19.67
19102;BMP280;9683;49.028;12.064;2023-09-30T10:52:30;98148.13;;;19.59
19102;BMP280;9683;49.028;12.064;2023-09-30T10:55:02;98153.34;;;19.71
19102;BMP280;9683;49.028;12.064;2023-09-30T10:57:29;98169.31;;;19.72
19102;BMP280;9683;49.028;12.064;2023-09-30T11:00:11;98166.91;;;19.76
19102;BMP280;9683;49.028;12.064;2023-09-30T11:02:49;98175.88;;;19.81
19102;BMP280;9683;49.028;12.064;2023-09-30T11:05:17;98176.16;;;19.85
19102;BMP280;9683;49.028;12.064;2023-09-30T11:07:45;98181.78;;;19.78
19102;BMP280;9683;49.028;12.064;2023-09-30T11:10:15;98181.81;;;19.83
19102;BMP280;9683;49.028;12.064;2023-09-30T11:12:53;98181.34;;;19.91
19102;BMP280;9683;49.028;12.064;2023-09-30T11:15:21;98176.78;;;19.97
19102;BMP280;9683;49.028;12.064;2023-09-30T11:17:48;98181.91;;;19.93
19102;BMP280;9683;49.028;12.064;2023-09-30T11:20:16;98181.41;;;20.01
19102;BMP280;9683;49.028;12.064;2023-09-30T11:22:42;98174.72;;;20.09
19102;BMP280;9683;49.028;12.064;2023-09-30T11:25:15;98170.19;;;20.20
19102;BMP280;9683;49.028;12.064;2023-09-30T11:27:41;98176.13;;;20.22
19102;BMP280;9683;49.028;12.064;2023-09-30T11:30:09;98165.59;;;20.25
19102;BMP280;9683;49.028;12.064;2023-09-30T11:32:37;98156.75;;;20.30
19102;BMP280;9683;49.028;12.064;2023-09-30T11:35:08;98158.38;;;20.31
19102;BMP280;9683;49.028;12.064;2023-09-30T11:37:34;98148.06;;;20.28
19102;BMP280;9683;49.028;12.064;2023-09-30T11:40:12;98146.75;;;20.30
19102;BMP280;9683;49.028;12.064;2023-09-30T11:42:39;98154.28;;;20.28
19102;BMP280;9683;49.028;12.064;2023-09-30T11:45:19;98141.53;;;20.29
19102;BMP280;9683;49.028;12.064;2023-09-30T11:47:47;98137.25;;;20.28
19102;BMP280;9683;49.028;12.064;2023-09-30T11:50:13;98147.44;;;20.16
19102;BMP280;9683;49.028;12.064;2023-09-30T11:52:44;98134.72;;;20.16
19102;BMP280;9683;49.028;12.064;2023-09-30T11:55:11;98142.88;;;20.21
19102;BMP280;9683;49.028;12.064;2023-09-30T11:57:39;98143.72;;;20.27
19102;BMP280;9683;49.028;12.064;2023-09-30T12:00:06;98146.16;;;20.28
19102;BMP280;9683;49.028;12.064;2023-09-30T12:02:39;98141.25;;;20.25
19102;BMP280;9683;49.028;12.064;2023-09-30T12:05:08;98151.63;;;20.33
19102;BMP280;9683;49.028;12.064;2023-09-30T12:07:37;98135.09;;;20.30
19102;BMP280;9683;49.028;12.064;2023-09-30T12:10:07;98142.16;;;20.31
19102;BMP280;9683;49.028;12.064;2023-09-30T12:12:33;98125.56;;;20.22
19102;BMP280;9683;49.028;12.064;2023-09-30T12:15:00;98136.34;;;20.17
19102;BMP280;9683;49.028;12.064;2023-09-30T12:17:27;98140.41;;;20.14
19102;BMP280;9683;49.028;12.064;2023-09-30T12:19:53;98134.69;;;20.06
19102;BMP280;9683;49.028;12.064;2023-09-30T12:22:21;98144.09;;;19.98
19102;BMP280;9683;49.028;12.064;2023-09-30T12:24:48;98143.56;;;20.01
19102;BMP280;9683;49.028;12.064;2023-09-30T12:27:14;98141.47;;;20.13
19102;BMP280;9683;49.028;12.064;2023-09-30T12:29:42;98158.00;;;20.17
19102;BMP280;9683;49.028;12.064;2023-09-30T12:32:09;98154.97;;;20.08
19102;BMP280;9683;49.028;12.064;2023-09-30T12:34:35;98141.16;;;20.05
19102;BMP280;9683;49.028;12.064;2023-09-30T12:37:02;98145.28;;;20.18
19102;BMP280;9683;49.028;12.064;2023-09-30T12:39:30;98135.03;;;20.20
19102;BMP280;9683;49.028;12.064;2023-09-30T12:41:58;98134.28;;;20.29
19102;BMP280;9683;49.028;12.064;2023-09-30T12:44:25;98136.78;;;20.41
19102;BMP280;9683;49.028;12.064;2023-09-30T12:46:51;98141.66;;;20.44
19102;BMP280;9683;49.028;12.064;2023-09-30T12:49:18;98127.59;;;20.47
19102;BMP280;9683;49.028;12.064;2023-09-30T12:51:45;98117.03;;;20.40
19102;BMP280;9683;49.028;12.064;2023-09-30T12:54:12;98144.63;;;20.42
19102;BMP280;9683;49.028;12.064;2023-09-30T12:56:41;98143.06;;;20.51
19102;BMP280;9683;49.028;12.064;2023-09-30T12:59:08;98147.69;;;20.56
19102;BMP280;9683;49.028;12.064;2023-09-30T13:01:34;98126.28;;;20.49
19102;BMP280;9683;49.028;12.064;2023-09-30T13:04:01;98122.47;;;20.50
19102;BMP280;9683;49.028;12.064;2023-09-30T13:06:27;98122.75;;;20.54
19102;BMP280;9683;49.028;12.064;2023-09-30T13:08:55;98118.19;;;20.59
19102;BMP280;9683;49.028;12.064;2023-09-30T13:11:21;98121.97;;;20.53
19102;BMP280;9683;49.028;12.064;2023-09-30T13:13:49;98118.16;;;20.54
19102;BMP280;9683;49.028;12.064;2023-09-30T13:16:16;98123.34;;;20.61
19102;BMP280;9683;49.028;12.064;2023-09-30T13:18:42;98124.19;;;20.72
19102;BMP280;9683;49.028;12.064;2023-09-30T13:21:09;98125.28;;;20.76
19102;BMP280;9683;49.028;12.064;2023-09-30T13:23:37;98123.63;;;20.65
19102;BMP280;9683;49.028;12.064;2023-09-30T13:26:03;98126.31;;;20.59
19102;BMP280;9683;49.028;12.064;2023-09-30T13:28:30;98128.72;;;20.56
19102;BMP280;9683;49.028;12.064;2023-09-30T13:30:58;98121.97;;;20.58
19102;BMP280;9683;49.028;12.064;2023-09-30T13:33:24;98079.72;;;20.42
19102;BMP280;9683;49.028;12.064;2023-09-30T13:35:51;98123.38;;;20.71
19102;BMP280;9683;49.028;12.064;2023-09-30T13:38:20;98110.09;;;20.65
19102;BMP280;9683;49.028;12.064;2023-09-30T13:40:46;98113.34;;;20.72
19102;BMP280;9683;49.028;12.064;2023-09-30T13:43:13;98116.34;;;20.80
19102;BMP280;9683;49.028;12.064;2023-09-30T13:45:39;98125.56;;;20.84
19102;BMP280;9683;49.028;12.064;2023-09-30T13:48:07;98121.81;;;20.90
19102;BMP280;9683;49.028;12.064;2023-09-30T13:50:34;98114.47;;;20.81
19102;BMP280;9683;49.028;12.064;2023-09-30T13:53:01;98107.44;;;20.85
19102;BMP280;9683;49.028;12.064;2023-09-30T13:55:28;98090.66;;;20.93
19102;BMP280;9683;49.028;12.064;2023-09-30T13:57:54;98097.47;;;21.05
19102;BMP280;9683;49.028;12.064;2023-09-30T14:00:21;98091.22;;;20.95
19102;BMP280;9683;49.028;12.064;2023-09-30T14:02:47;98101.50;;;20.93
19102;BMP280;9683;49.028;12.064;2023-09-30T14:05:16;98095.81;;;20.89
19102;BMP280;9683;49.028;12.064;2023-09-30T14:07:45;98094.44;;;20.82
19102;BMP280;9683;49.028;12.064;2023-09-30T14:10:11;98095.78;;;20.79
19102;BMP280;9683;49.028;12.064;2023-09-30T14:12:38;98096.09;;;20.83
19102;BMP280;9683;49.028;12.064;2023-09-30T14:15:06;98092.00;;;20.80
19102;BMP280;9683;49.028;12.064;2023-09-30T14:17:33;98065.97;;;20.64